Latah, WA (99018)

7:05 PM PDT on April 27, 2015 (GMT -0700)
The Palouse in Plaza | | Change Station
CLOSE
Current Station
Personal Weather Station
Location: Rosalia, WA
Elevation: 2470 ft
Nearby Weather Stations

Elev 2470 ft 47.33 °N, 117.36 °W | Updated 19 seconds ago

Partly Cloudy
Partly Cloudy
66.4 °F
Feels Like 66.4 °F
N
0.0
Wind Variable Wind from West
Gusts 0.0 mph

Today
High -- | Low -- °F
--% Chance of Precip.
Yesterday
High -- | Low -- °F
Precip. -- in
5:39 AM 7:54 PM
Waxing Gibbous, 69% visible
Pressure 30.19 in
Visibility 10.0 miles
Clouds Clear
Dew Point 35 °F
Humidity 31%
Rainfall 0.00 in
Snow Depth Not available.
UV 1.0 out of 12
Pollen 10.20 out of 12
Air Quality Not available.
Flu Activity Regional
METAR KSFF 280153Z 00000KT 10SM CLR 19/02 A3018 RMK AO2 SLP222 T01890022

More Conditions Fewer Conditions

Pressure 30.19 in
Visibility 10.0 miles
Clouds Clear
Dew Point 35 °F
Humidity 31%
Rainfall 0.00 in
Snow Depth Not available.
UV 1.0 out of 12
Pollen 10.20 out of 12
Air Quality Not available.
Flu Activity Regional
METAR KSFF 280153Z 00000KT 10SM CLR 19/02 A3018 RMK AO2 SLP222 T01890022

More Conditions Fewer Conditions

10-Day Weather Forecast

Almanac

Astronomy

Apr. 27, 2015 Rise Set
Actual Time
Civil Twilight
Nautical Twilight
Astronomical Twilight
Moon
Length of Visible Light
Length of Day
Tomorrow will be .
, % of the Moon is Illuminated

Today's Extremes

State Highs State Lows

Community

WunderPhotos

Upload Photos

1,817,508 photos uploaded!

WunderBlogs® & News

Nearby

Air Quality

  Air Quality AQ Index Pollutant
Not available.

Snow Depth

Station Depth Elevation

Earthquake Activity

City Distance Mag. Time & Date
Minimum magnitude displayed is 2.5.

Coastal Water Temperatures

Place Temperature

Stations

Nearby Weather Stations

Station Location Temp. Windchill Dew Point Humidity Wind Precip. Elev Updated Type